Watkins Glen, New York
Current Conditions -  °F | °C
As of 4:53 PM on Monday 20 Oct 2014 (Local Time) from KELM Reporting Station
Clear Clear  
Wind Chill: 14°   Ceiling: Unl
Heat Index: 14°   Visibility: 10mi
Dew Point:   Wind: 14mph
Humidity: 51%   Direction: 210°SSW
Pressure: 29.87"   Gusts: NA
Location:  42.38°N, 76.87°W
Report Text: KELM 202053Z 21012KT 10SM CLR 14/04 A2987 RMK AO2 SLP119 T01390039 56011
Loading
Personal Weather Stations






























Interactive Weather Map
Tropical Storm Tracking
New forecast layout! Learn more

10-Day Weather Forecast

Advertisements
Track Severe Weather on mobile